createdAt,value
2019-02-18T00:02:31.735Z,10.62
2019-02-18T00:05:14.359Z,10.63
2019-02-18T00:08:04.769Z,10.60
2019-02-18T00:10:48.080Z,10.58
2019-02-18T00:13:38.810Z,10.49
2019-02-18T00:16:21.587Z,10.49
2019-02-18T00:19:15.053Z,10.42
2019-02-18T00:21:57.759Z,10.41
2019-02-18T00:24:48.151Z,10.33
2019-02-18T00:27:31.386Z,10.29
2019-02-18T00:30:21.743Z,10.30
2019-02-18T00:33:05.282Z,10.28
2019-02-18T00:35:55.684Z,10.24
2019-02-18T00:38:38.308Z,10.20
2019-02-18T00:41:28.653Z,10.16
2019-02-18T00:44:12.064Z,10.10
2019-02-18T00:47:02.446Z,10.10
2019-02-18T00:49:45.134Z,10.09
2019-02-18T00:52:35.516Z,10.05
2019-02-18T00:55:18.236Z,10.02
2019-02-18T00:58:08.609Z,10.01
2019-02-18T01:00:51.730Z,10.04
2019-02-18T01:03:42.121Z,10.06
2019-02-18T01:06:25.654Z,10.04
2019-02-18T01:09:16.036Z,10.07
2019-02-18T01:11:58.621Z,10.09
2019-02-18T01:14:49.017Z,10.09
2019-02-18T01:17:32.339Z,10.13
2019-02-18T01:20:22.755Z,10.08
2019-02-18T01:23:06.143Z,10.09
2019-02-18T01:25:56.515Z,10.03
2019-02-18T01:28:39.253Z,10.02
2019-02-18T01:31:29.641Z,10.06
2019-02-18T01:34:13.078Z,10.01
2019-02-18T01:37:03.474Z,10.01
2019-02-18T01:39:46.730Z,10.07
2019-02-18T01:42:37.114Z,10.03
2019-02-18T01:45:27.463Z,10.04
2019-02-18T01:48:10.851Z,9.98
2019-02-18T01:50:53.473Z,9.97
2019-02-18T01:53:43.780Z,9.91
2019-02-18T01:56:27.010Z,9.92
2019-02-18T01:59:17.369Z,9.90
2019-02-18T02:01:59.863Z,9.84
2019-02-18T02:04:50.247Z,9.78
2019-02-18T02:07:33.332Z,9.73
2019-02-18T02:10:23.692Z,9.76
2019-02-18T02:13:25.261Z,9.74
2019-02-18T02:16:09.383Z,9.67
2019-02-18T02:18:54.633Z,9.64
2019-02-18T02:21:44.997Z,9.64
2019-02-18T02:24:27.964Z,9.55
2019-02-18T02:27:18.340Z,9.56
2019-02-18T02:30:00.989Z,9.55
2019-02-18T02:32:51.346Z,9.53
2019-02-18T02:35:34.071Z,9.58
2019-02-18T02:38:24.421Z,9.58
2019-02-18T02:41:07.504Z,9.55
2019-02-18T02:43:57.871Z,9.65
2019-02-18T02:46:40.799Z,9.63
2019-02-18T02:49:31.185Z,9.68
2019-02-18T02:52:14.593Z,9.63
2019-02-18T02:55:05.151Z,9.65
2019-02-18T02:57:47.801Z,9.76
2019-02-18T03:00:38.186Z,9.83
2019-02-18T03:03:20.835Z,9.75
2019-02-18T03:06:11.212Z,9.78
2019-02-18T03:08:54.693Z,9.80
2019-02-18T03:11:45.029Z,9.76
2019-02-18T03:14:27.945Z,9.72
2019-02-18T03:17:18.277Z,9.71
2019-02-18T03:20:01.471Z,9.62
2019-02-18T03:22:51.820Z,9.57
2019-02-18T03:25:35.227Z,9.55
2019-02-18T03:29:03.654Z,9.51
2019-02-18T03:31:46.644Z,9.43
2019-02-18T03:34:31.379Z,9.43
2019-02-18T03:37:21.758Z,9.34
2019-02-18T03:40:05.509Z,9.35
2019-02-18T03:42:55.903Z,9.37
2019-02-18T03:45:38.782Z,9.37
2019-02-18T03:48:29.096Z,9.31
2019-02-18T03:51:11.657Z,9.31
2019-02-18T03:54:02.150Z,9.30
2019-02-18T03:56:45.429Z,9.20
2019-02-18T04:03:04.149Z,9.17
2019-02-18T04:05:54.531Z,9.09
2019-02-18T04:08:44.919Z,9.07
2019-02-18T04:11:35.322Z,8.97
2019-02-18T04:14:38.255Z,9.02
2019-02-18T04:17:28.731Z,8.97
2019-02-18T04:20:11.352Z,8.99
2019-02-18T04:23:01.721Z,8.89
2019-02-18T04:25:44.997Z,8.88
2019-02-18T04:28:35.379Z,8.78
2019-02-18T04:31:18.059Z,8.72
2019-02-18T04:34:08.470Z,8.76
2019-02-18T04:36:51.113Z,8.73
2019-02-18T04:39:41.461Z,8.67
2019-02-18T04:42:24.498Z,8.66
2019-02-18T04:45:14.855Z,8.61
2019-02-18T04:47:58.267Z,8.51
2019-02-18T04:50:48.625Z,8.44
2019-02-18T04:53:31.356Z,8.50
2019-02-18T04:56:21.774Z,8.45
2019-02-18T04:59:04.760Z,8.36
2019-02-18T05:02:14.129Z,8.24
2019-02-18T05:04:57.603Z,8.23
2019-02-18T05:07:47.943Z,8.27
2019-02-18T05:10:31.304Z,8.23
2019-02-18T05:13:21.698Z,8.29
2019-02-18T05:16:04.738Z,8.29
2019-02-18T05:18:48.030Z,8.31
2019-02-18T05:21:38.377Z,8.28
2019-02-18T05:24:21.603Z,8.28
2019-02-18T05:27:11.947Z,8.23
2019-02-18T05:29:54.548Z,8.14
2019-02-18T05:32:44.940Z,8.09
2019-02-18T05:35:27.601Z,8.00
2019-02-18T05:38:10.468Z,8.00
2019-02-18T05:41:01.479Z,8.03
2019-02-18T05:43:44.022Z,8.06
2019-02-18T05:46:34.387Z,8.01
2019-02-18T05:49:17.385Z,7.96
2019-02-18T05:52:07.894Z,7.92
2019-02-18T05:55:11.098Z,7.91
2019-02-18T05:58:01.516Z,7.95
2019-02-18T06:00:44.434Z,7.91
2019-02-18T06:03:34.761Z,7.98
2019-02-18T06:06:18.035Z,7.97
2019-02-18T06:09:08.437Z,8.05
2019-02-18T06:12:11.301Z,8.13
2019-02-18T06:15:01.659Z,8.19
2019-02-18T06:17:44.980Z,8.22
2019-02-18T06:20:27.825Z,8.32
2019-02-18T06:23:18.898Z,8.39
2019-02-18T06:26:01.890Z,8.41
2019-02-18T06:28:52.301Z,8.48
2019-02-18T06:31:35.549Z,8.50
2019-02-18T06:34:25.969Z,8.51
2019-02-18T06:37:08.971Z,8.58
2019-02-18T06:39:59.356Z,8.60
2019-02-18T06:42:42.879Z,8.59
2019-02-18T06:45:39.608Z,8.63
2019-02-18T06:48:41.693Z,8.62
2019-02-18T06:55:00.327Z,8.72
2019-02-18T06:58:09.500Z,8.71
2019-02-18T07:01:18.713Z,8.79
2019-02-18T07:04:40.885Z,8.85
2019-02-18T07:07:50.097Z,9.03
2019-02-18T07:10:39.854Z,9.23
2019-02-18T07:13:30.209Z,9.48
2019-02-18T07:16:13.540Z,9.70
2019-02-18T07:18:59.171Z,9.86
2019-02-18T07:21:48.677Z,10.08
2019-02-18T07:24:31.984Z,10.30
2019-02-18T07:27:22.407Z,10.66
2019-02-18T07:30:05.992Z,10.98
2019-02-18T07:32:48.652Z,11.67
2019-02-18T07:35:39.073Z,13.02
2019-02-18T07:38:22.648Z,14.66
2019-02-18T07:41:13.046Z,15.77
2019-02-18T07:43:57.632Z,16.79
2019-02-18T07:46:48.023Z,17.95
2019-02-18T07:49:31.344Z,18.69
2019-02-18T07:52:21.753Z,19.21
2019-02-18T07:55:06.233Z,19.84
2019-02-18T07:57:56.645Z,19.63
2019-02-18T08:00:39.422Z,19.83
2019-02-18T08:03:29.849Z,20.31
2019-02-18T08:06:12.985Z,21.13
2019-02-18T08:12:19.351Z,21.10
2019-02-18T08:15:06.292Z,20.77
2019-02-18T08:17:49.206Z,21.27
2019-02-18T08:20:39.639Z,20.58
2019-02-18T08:23:22.528Z,20.66
2019-02-18T08:26:12.914Z,20.25
2019-02-18T08:29:16.074Z,19.45
2019-02-18T08:32:06.482Z,18.63
2019-02-18T08:35:09.700Z,18.93
2019-02-18T08:38:00.104Z,18.31
2019-02-18T08:41:03.539Z,18.14
2019-02-18T08:43:53.929Z,18.41
2019-02-18T08:46:36.834Z,18.79
2019-02-18T08:49:19.605Z,18.10
2019-02-18T08:55:12.259Z,17.52
2019-02-18T08:58:23.101Z,17.31
2019-02-18T09:01:06.045Z,17.48
2019-02-18T09:03:56.379Z,17.35
2019-02-18T09:06:39.875Z,17.41
2019-02-18T09:12:58.865Z,17.67
2019-02-18T09:15:59.409Z,18.28
2019-02-18T09:18:54.133Z,18.70
2019-02-18T09:21:44.591Z,18.51
2019-02-18T09:24:31.833Z,18.75
2019-02-18T09:27:15.415Z,18.96
2019-02-18T09:30:06.643Z,19.05
2019-02-18T09:32:50.025Z,19.62
2019-02-18T09:35:40.485Z,19.69
2019-02-18T09:38:25.374Z,20.06
2019-02-18T09:41:15.282Z,20.52
2019-02-18T09:43:58.596Z,21.18
2019-02-18T09:47:07.835Z,21.51
2019-02-18T09:49:51.012Z,21.67
2019-02-18T09:52:41.428Z,21.75
2019-02-18T09:55:24.401Z,21.43
2019-02-18T09:58:14.818Z,21.80
2019-02-18T10:00:46.143Z,21.67
2019-02-18T10:03:36.515Z,21.53
2019-02-18T10:09:29.827Z,21.32
2019-02-18T10:12:20.208Z,21.12
2019-02-18T10:15:02.873Z,21.23
2019-02-18T10:17:45.501Z,21.69
2019-02-18T10:20:35.847Z,21.69
2019-02-18T10:23:19.088Z,21.68
2019-02-18T10:26:09.437Z,21.86
2019-02-18T10:28:52.857Z,21.73
2019-02-18T10:31:43.233Z,21.47
2019-02-18T10:34:25.826Z,21.39
2019-02-18T10:37:19.319Z,21.80
2019-02-18T10:40:02.679Z,21.96
2019-02-18T10:42:53.014Z,21.59
2019-02-18T10:45:35.907Z,21.48
2019-02-18T10:48:26.323Z,20.90
2019-02-18T10:51:09.140Z,20.47
2019-02-18T10:54:00.123Z,20.33
2019-02-18T10:57:04.367Z,20.52
2019-02-18T10:59:54.760Z,19.90
2019-02-18T11:02:37.372Z,20.09
2019-02-18T11:05:27.773Z,20.69
2019-02-18T11:08:20.719Z,20.29
2019-02-18T11:11:17.041Z,20.10
2019-02-18T11:14:23.055Z,20.01
2019-02-18T11:17:06.388Z,20.07
2019-02-18T11:19:56.744Z,20.64
2019-02-18T11:22:40.975Z,21.02
2019-02-18T11:25:31.374Z,21.45
2019-02-18T11:28:14.607Z,21.96
2019-02-18T11:31:05.791Z,21.85
2019-02-18T11:33:48.591Z,22.07
2019-02-18T11:36:38.986Z,22.54
2019-02-18T11:39:22.179Z,22.10
2019-02-18T11:42:12.538Z,21.75
2019-02-18T11:44:55.874Z,21.99
2019-02-18T11:47:46.622Z,22.19
2019-02-18T11:50:29.788Z,22.16
2019-02-18T11:53:20.139Z,22.09
2019-02-18T11:56:03.608Z,21.84
2019-02-18T11:58:53.988Z,21.87
2019-02-18T12:01:37.150Z,22.19
2019-02-18T12:04:27.520Z,22.58
2019-02-18T12:07:10.682Z,22.04
2019-02-18T12:10:01.169Z,22.06
2019-02-18T12:12:44.074Z,22.23
2019-02-18T12:15:34.463Z,22.37
2019-02-18T12:18:17.072Z,22.05
2019-02-18T12:21:07.734Z,22.27
2019-02-18T12:23:50.903Z,22.61
2019-02-18T12:26:41.318Z,22.69
2019-02-18T12:29:26.453Z,22.72
2019-02-18T12:32:15.957Z,22.76
2019-02-18T12:34:58.713Z,22.86
2019-02-18T12:37:55.253Z,22.89
2019-02-18T12:40:54.186Z,22.92
2019-02-18T12:43:36.934Z,22.74
2019-02-18T12:46:27.354Z,22.73
2019-02-18T12:49:10.166Z,22.26
2019-02-18T12:51:59.922Z,22.43
2019-02-18T12:54:42.691Z,22.59
2019-02-18T12:57:33.065Z,21.91
2019-02-18T13:00:16.507Z,21.86
2019-02-18T13:03:07.041Z,21.77
2019-02-18T13:06:10.140Z,21.82
2019-02-18T13:09:00.535Z,21.78
2019-02-18T13:12:03.283Z,22.01
2019-02-18T13:14:53.652Z,22.23
2019-02-18T13:17:58.418Z,22.58
2019-02-18T13:20:48.778Z,22.61
2019-02-18T13:23:31.888Z,22.68
2019-02-18T13:26:22.284Z,22.48
2019-02-18T13:29:05.612Z,22.85
2019-02-18T13:31:56.867Z,23.21
2019-02-18T13:34:47.264Z,22.89
2019-02-18T13:37:30.628Z,22.84
2019-02-18T13:40:21.148Z,22.84
2019-02-18T13:43:04.489Z,22.55
2019-02-18T13:45:54.899Z,22.53
2019-02-18T13:48:45.832Z,22.69
2019-02-18T13:51:28.799Z,22.45
2019-02-18T13:54:19.214Z,22.42
2019-02-18T13:57:22.046Z,22.89
2019-02-18T14:00:19.337Z,22.79
2019-02-18T14:03:01.945Z,22.77
2019-02-18T14:05:52.302Z,22.89
2019-02-18T14:08:35.259Z,23.21
2019-02-18T14:11:25.636Z,23.42
2019-02-18T14:14:08.270Z,23.33
2019-02-18T14:16:58.645Z,23.23
2019-02-18T14:20:03.093Z,23.61
2019-02-18T14:26:05.415Z,24.32
2019-02-18T14:28:48.816Z,23.86
2019-02-18T14:31:39.198Z,23.49
2019-02-18T14:34:22.382Z,22.93
2019-02-18T14:37:12.761Z,22.75
2019-02-18T14:39:56.221Z,22.76
2019-02-18T14:42:39.177Z,22.74
2019-02-18T14:45:29.615Z,22.55
2019-02-18T14:48:12.949Z,22.71
2019-02-18T14:51:03.333Z,22.32
2019-02-18T14:53:46.031Z,22.28
2019-02-18T14:56:36.683Z,22.46
2019-02-18T14:59:20.104Z,22.74
2019-02-18T15:02:10.988Z,22.26
2019-02-18T15:04:53.849Z,22.06
2019-02-18T15:07:44.271Z,21.80
2019-02-18T15:10:27.720Z,21.93
2019-02-18T15:13:18.107Z,21.99
2019-02-18T15:16:22.430Z,21.76
2019-02-18T15:19:12.823Z,21.44
2019-02-18T15:21:55.433Z,20.95
2019-02-18T15:24:45.858Z,21.00
2019-02-18T15:27:50.511Z,20.91
2019-02-18T15:30:40.984Z,20.88
2019-02-18T15:33:23.746Z,20.63
2019-02-18T15:36:14.087Z,20.52
2019-02-18T15:39:18.390Z,20.46
2019-02-18T15:42:08.839Z,20.62
2019-02-18T15:44:51.877Z,20.46
2019-02-18T15:47:42.263Z,20.51
2019-02-18T15:50:46.699Z,20.51
2019-02-18T15:53:37.158Z,20.20
2019-02-18T15:56:20.111Z,20.29
2019-02-18T15:59:10.485Z,20.01
2019-02-18T16:02:15.668Z,19.98
2019-02-18T16:05:08.847Z,19.91
2019-02-18T16:07:52.060Z,19.61
2019-02-18T16:14:10.443Z,19.13
2019-02-18T16:17:01.423Z,18.85
2019-02-18T16:19:51.805Z,18.77
2019-02-18T16:22:56.892Z,18.57
2019-02-18T16:26:00.055Z,18.48
2019-02-18T16:28:50.419Z,18.32
2019-02-18T16:31:54.652Z,18.30
2019-02-18T16:34:41.339Z,18.06
2019-02-18T16:37:32.307Z,17.85
2019-02-18T16:40:16.153Z,17.74
2019-02-18T16:43:06.550Z,17.49
2019-02-18T16:45:49.627Z,17.31
2019-02-18T16:48:42.760Z,17.09
2019-02-18T16:51:25.833Z,16.87
2019-02-18T16:54:16.224Z,16.73
2019-02-18T16:56:59.666Z,16.62
2019-02-18T16:59:50.069Z,16.45
2019-02-18T17:02:33.223Z,16.39
2019-02-18T17:05:23.625Z,16.26
2019-02-18T17:08:06.643Z,15.99
2019-02-18T17:10:59.468Z,15.88
2019-02-18T17:13:42.550Z,15.81
2019-02-18T17:16:32.980Z,15.76
2019-02-18T17:19:15.620Z,15.58
2019-02-18T17:22:06.009Z,15.59
2019-02-18T17:24:49.513Z,15.47
2019-02-18T17:27:39.897Z,15.25
2019-02-18T17:30:22.758Z,15.00
2019-02-18T17:33:05.555Z,14.81
2019-02-18T17:35:55.928Z,14.79
2019-02-18T17:38:39.306Z,14.70
2019-02-18T17:41:29.697Z,14.58
2019-02-18T17:44:32.773Z,14.44
2019-02-18T17:47:35.435Z,14.24
2019-02-18T17:50:26.778Z,14.23
2019-02-18T17:53:09.971Z,14.13
2019-02-18T17:56:00.341Z,13.95
2019-02-18T17:58:42.951Z,13.92
2019-02-18T18:01:33.307Z,13.79
2019-02-18T18:04:16.521Z,13.71
2019-02-18T18:07:07.113Z,13.65
2019-02-18T18:09:49.133Z,13.66
2019-02-18T18:12:32.636Z,13.59
2019-02-18T18:15:23.011Z,13.53
2019-02-18T18:18:06.412Z,13.37
2019-02-18T18:20:57.133Z,13.24
2019-02-18T18:23:39.881Z,13.24
2019-02-18T18:26:30.276Z,13.32
2019-02-18T18:29:13.589Z,13.18
2019-02-18T18:32:03.968Z,13.07
2019-02-18T18:34:47.261Z,13.01
2019-02-18T18:37:37.674Z,13.09
2019-02-18T18:40:20.886Z,12.94
2019-02-18T18:43:11.295Z,12.90
2019-02-18T18:45:54.686Z,12.89
2019-02-18T18:48:45.143Z,12.83
2019-02-18T18:51:27.950Z,12.78
2019-02-18T18:54:18.444Z,12.75
2019-02-18T18:57:01.114Z,12.74
2019-02-18T18:59:51.575Z,12.69
2019-02-18T19:02:34.796Z,12.68
2019-02-18T19:05:25.250Z,12.68
2019-02-18T19:08:08.484Z,12.49
2019-02-18T19:14:07.985Z,12.47
2019-02-18T19:19:59.976Z,12.38
2019-02-18T19:23:04.563Z,12.33
2019-02-18T19:25:54.963Z,12.39
2019-02-18T19:28:38.136Z,12.24
2019-02-18T19:31:21.178Z,12.20
2019-02-18T19:34:11.579Z,12.31
2019-02-18T19:36:54.358Z,12.31
2019-02-18T19:39:44.754Z,12.19
2019-02-18T19:42:16.159Z,12.18
2019-02-18T19:45:07.605Z,12.09
2019-02-18T19:51:00.176Z,12.11
2019-02-18T19:53:50.581Z,12.03
2019-02-18T19:56:33.853Z,12.02
2019-02-18T19:59:24.289Z,12.07
2019-02-18T20:02:07.227Z,12.03
2019-02-18T20:04:57.732Z,11.98
2019-02-18T20:07:40.759Z,11.85
2019-02-18T20:10:31.329Z,11.88
2019-02-18T20:13:14.479Z,11.94
2019-02-18T20:16:04.988Z,11.84
2019-02-18T20:19:09.914Z,11.79
2019-02-18T20:22:00.346Z,11.72
2019-02-18T20:24:43.681Z,11.64
2019-02-18T20:27:34.123Z,11.63
2019-02-18T20:30:38.970Z,11.70
2019-02-18T20:33:30.412Z,11.60
2019-02-18T20:36:14.050Z,11.60
2019-02-18T20:39:04.979Z,11.52
2019-02-18T20:42:09.610Z,11.62
2019-02-18T20:45:00.234Z,11.72
2019-02-18T20:47:44.556Z,11.88
2019-02-18T20:50:34.940Z,11.96
2019-02-18T20:53:38.279Z,12.03
2019-02-18T20:56:28.791Z,12.16
2019-02-18T20:59:12.201Z,12.03
2019-02-18T21:02:02.608Z,11.79
2019-02-18T21:05:07.790Z,11.61
2019-02-18T21:07:58.239Z,11.52
2019-02-18T21:10:40.841Z,11.42
2019-02-18T21:13:31.285Z,11.32
2019-02-18T21:16:14.409Z,11.31
2019-02-18T21:19:04.824Z,11.23
2019-02-18T21:21:47.725Z,11.22
2019-02-18T21:24:38.178Z,11.19
2019-02-18T21:27:21.707Z,11.25
2019-02-18T21:30:12.774Z,11.18
2019-02-18T21:32:55.864Z,11.15
2019-02-18T21:35:46.525Z,11.02
2019-02-18T21:38:30.053Z,10.97
2019-02-18T21:41:23.976Z,11.01
2019-02-18T21:44:07.492Z,11.08
2019-02-18T21:46:57.850Z,10.95
2019-02-18T21:49:40.976Z,10.93
2019-02-18T21:52:31.383Z,10.95
2019-02-18T21:55:14.320Z,10.95
2019-02-18T21:58:04.693Z,10.90
2019-02-18T22:00:48.095Z,10.83
2019-02-18T22:03:38.459Z,10.77
2019-02-18T22:06:21.413Z,10.73
2019-02-18T22:09:11.806Z,10.79
2019-02-18T22:11:54.842Z,10.86
2019-02-18T22:14:45.223Z,10.78
2019-02-18T22:17:28.318Z,10.72
2019-02-18T22:20:18.730Z,10.74
2019-02-18T22:23:09.082Z,10.87
2019-02-18T22:25:59.539Z,10.75
2019-02-18T22:28:42.673Z,10.80
2019-02-18T22:31:33.052Z,10.77
2019-02-18T22:34:15.686Z,10.64
2019-02-18T22:37:06.037Z,10.73
2019-02-18T22:39:49.107Z,10.59
2019-02-18T22:42:39.580Z,10.66
2019-02-18T22:45:23.194Z,10.71
2019-02-18T22:48:13.585Z,10.59
2019-02-18T22:50:56.931Z,10.55
2019-02-18T22:53:47.293Z,10.59
2019-02-18T22:56:30.003Z,10.56
2019-02-18T22:59:20.395Z,10.52
2019-02-18T23:02:03.236Z,10.58
2019-02-18T23:04:53.605Z,10.54
2019-02-18T23:07:36.891Z,10.51
2019-02-18T23:10:47.177Z,10.38
2019-02-18T23:13:30.625Z,10.53
2019-02-18T23:16:20.962Z,10.44
2019-02-18T23:19:04.357Z,10.59
2019-02-18T23:21:47.303Z,10.49
2019-02-18T23:24:37.674Z,10.60
2019-02-18T23:27:41.893Z,10.56
2019-02-18T23:30:32.284Z,10.45
2019-02-18T23:33:15.019Z,10.49
2019-02-18T23:36:05.416Z,10.42
2019-02-18T23:38:48.714Z,10.46
2019-02-18T23:41:39.112Z,10.46
2019-02-18T23:44:21.949Z,10.52
2019-02-18T23:47:12.323Z,10.41
2019-02-18T23:49:54.904Z,10.45
2019-02-18T23:52:37.401Z,10.44
2019-02-18T23:55:27.777Z,10.47
2019-02-18T23:58:10.879Z,10.60
